Pagrindinis puslapis
METAR-TAF:

METAR-TAF

Oro uostai :

Touho, Naujoji Kaledonija

platuma: 20-47-25S, ilguma: 165-15-34E, Aukštis: 3 m

METAR: trūkstamas

Laikas: 18:40 (07:40 UTC)

Prognozė

Ataskaita buvo paskelbta 14 valandos ir 40 minutes, ne 17:00 UTC
Prognozė galioja nuo 26 metu 18 UTC su 27 metu 18 UTC
Vėjas 5 kt iš Pietų
Matomumas 10 km arba daugiau
Mažai debesys ne aukštis 3500 ft
Tapsmas
nuo 26 metu 23 UTC su 27 metu 01 UTC
Vėjas 14 kt iš Rytų/Pietryčių
Tikimybė 40% :
Laikinai
nuo 27 metu 10 UTC su 27 metu 15 UTC
Su prošvaistėmis ne aukštis 1300 ft
Su prošvaistėmis ne aukštis 3500 ft
lietus

TAF: NWWU 261700Z 2618/2718 18005KT 9999 FEW035 BECMG 2623/2701 12014KT PROB40 TEMPO 2710/2715 SHRA BKN013 BKN035

Orai ataskaitas ir orų prognozės (METAR, TAF).

turimą stotys yra geltonos ir raudonos taškus žemėlapyje.

Perkelti pele per norėdami pamatyti stoties vardą.

Tada spustelėkite, norėdami matyti oro stebėjimo ir prognozės.

Norėdami pakeisti žemėlapį: spustelėkite ant žalios mygtukų su juodo kryžiaus žemyn,; žalią mygtuką su brūkšneliu, jei norite nutolinti; arba žalių rodyklių gretimoms žemėlapius.


METAR-TAF: